Time;durP1;ratioP1;P1;durP2;ratioP2;P2;SDS_P1;SDS_P2;PMS_P1;PMS_P2;Temp;Humidity;BMP_temperature;BMP_pressure;BME280_temperature;BME280_humidity;BME280_pressure;Samples;Min_cycle;Max_cycle;Signal;HPM_P1;HPM_P2
2022/07/14 00:02:13;;;;;;;4.18;2.15;;;;;;;21.73;39.76;101073.31;5096608;28;20479;-70
2022/07/14 00:04:39;;;;;;;6.85;2.05;;;;;;;21.67;39.81;101076.97;5095920;28;20071;-70
2022/07/14 00:07:06;;;;;;;7.60;2.25;;;;;;;21.74;39.41;101072.28;5095924;28;20051;-70
2022/07/14 00:09:33;;;;;;;7.18;2.38;;;;;;;21.84;39.33;101078.09;5095066;28;20044;-70
2022/07/14 00:11:59;;;;;;;5.60;2.15;;;;;;;21.69;39.70;101071.28;5096406;28;20051;-70
2022/07/14 00:14:26;;;;;;;8.13;2.10;;;;;;;21.70;40.11;101083.84;5095514;28;20123;-70
2022/07/14 00:16:52;;;;;;;4.35;2.50;;;;;;;21.44;40.44;101074.03;5096120;28;20075;-70
2022/07/14 00:19:19;;;;;;;2.65;2.20;;;;;;;21.64;40.04;101080.16;5096106;28;20043;-70
2022/07/14 00:21:46;;;;;;;5.70;2.40;;;;;;;21.64;39.98;101071.97;5116693;28;20055;-70
2022/07/14 00:24:13;;;;;;;4.70;2.38;;;;;;;21.65;39.80;101081.81;5115181;28;20040;-70
2022/07/14 00:26:39;;;;;;;5.78;2.20;;;;;;;21.56;40.29;101072.22;5116437;28;20085;-70
2022/07/14 00:29:07;;;;;;;3.22;2.28;;;;;;;21.61;40.11;101077.88;5099641;28;20083;-71
2022/07/14 00:31:35;;;;;;;8.10;2.42;;;;;;;21.53;40.25;101083.63;5096364;28;20070;-71
2022/07/14 00:34:02;;;;;;;7.03;2.75;;;;;;;21.30;40.79;101090.53;5096488;28;20036;-70
2022/07/14 00:36:29;;;;;;;12.25;3.15;;;;;;;21.20;40.82;101073.81;5096118;28;20480;-71
2022/07/14 00:38:56;;;;;;;6.47;2.20;;;;;;;21.06;41.37;101083.13;5093337;28;20135;-71
2022/07/14 00:41:23;;;;;;;4.88;2.22;;;;;;;21.07;41.24;101087.53;5092475;28;20491;-71
2022/07/14 00:43:49;;;;;;;7.35;2.33;;;;;;;21.07;41.19;101079.34;5092701;28;20067;-71
2022/07/14 00:46:16;;;;;;;4.82;2.45;;;;;;;20.94;41.43;101084.88;5093544;28;20551;-71
2022/07/14 00:48:43;;;;;;;5.57;2.58;;;;;;;20.93;41.57;101084.06;5093001;28;20063;-72
2022/07/14 00:51:09;;;;;;;6.63;2.55;;;;;;;20.94;41.58;101079.44;5093675;28;20127;-72
2022/07/14 00:53:36;;;;;;;5.88;2.67;;;;;;;20.92;41.57;101091.41;5093403;28;20049;-71
2022/07/14 00:56:03;;;;;;;4.28;2.33;;;;;;;20.92;41.47;101094.13;5093812;28;20044;-72
2022/07/14 00:58:29;;;;;;;2.97;1.92;;;;;;;20.74;42.05;101107.69;5092503;28;20047;-71
2022/07/14 01:00:56;;;;;;;6.55;1.95;;;;;;;20.77;42.07;101100.97;5093161;28;20071;-72
2022/07/14 01:03:22;;;;;;;3.53;2.42;;;;;;;20.79;41.88;101105.13;5093617;28;20093;-72
2022/07/14 01:09:36;;;;;;;5.05;2.40;;;;;;;20.73;42.14;101103.28;5064175;28;20094;-72
2022/07/14 01:12:03;;;;;;;7.13;2.20;;;;;;;20.78;42.13;101106.19;5092514;28;20074;-71
2022/07/14 01:14:29;;;;;;;7.57;2.45;;;;;;;20.65;42.34;101108.97;5093208;28;20483;-72
2022/07/14 01:16:57;;;;;;;3.72;1.95;;;;;;;20.69;42.39;101112.94;5092346;28;20075;-72
2022/07/14 01:19:24;;;;;;;6.15;2.10;;;;;;;20.55;42.68;101112.16;5093718;28;20399;-72
2022/07/14 01:21:54;;;;;;;3.72;1.80;;;;;;;20.58;42.54;101110.91;5093297;28;20122;-72
2022/07/14 01:24:22;;;;;;;4.55;2.25;;;;;;;20.33;43.29;101108.88;5093486;28;20047;-71
2022/07/14 01:26:49;;;;;;;4.82;2.08;;;;;;;20.46;42.87;101109.94;5092668;28;20446;-71
2022/07/14 01:29:16;;;;;;;4.50;2.10;;;;;;;20.71;42.39;101119.03;5084868;28;20079;-71
2022/07/14 01:31:43;;;;;;;3.83;2.17;;;;;;;20.73;42.19;101119.66;5093199;28;20071;-72
2022/07/14 01:34:10;;;;;;;7.20;2.42;;;;;;;20.76;42.28;101115.63;5091705;28;20394;-71
2022/07/14 01:36:37;;;;;;;3.47;1.75;;;;;;;20.68;42.51;101123.00;5093134;28;20067;-72
2022/07/14 01:39:04;;;;;;;8.20;1.95;;;;;;;20.57;42.82;101118.25;5092854;28;20063;-71
2022/07/14 01:41:32;;;;;;;3.58;2.25;;;;;;;20.47;42.83;101120.59;5092558;28;20438;-71
2022/07/14 01:43:59;;;;;;;2.72;1.90;;;;;;;20.47;42.95;101120.59;5082147;28;20122;-71
2022/07/14 01:46:25;;;;;;;3.83;2.08;;;;;;;20.20;43.62;101120.66;5092118;28;20470;-71
2022/07/14 01:48:52;;;;;;;4.05;1.92;;;;;;;20.27;43.47;101115.19;5093282;28;20059;-71
2022/07/14 01:51:20;;;;;;;5.35;2.13;;;;;;;20.36;43.22;101115.81;5092121;28;20531;-71
2022/07/14 01:53:47;;;;;;;4.30;2.13;;;;;;;20.28;43.49;101122.34;5092570;28;20127;-71
2022/07/14 01:56:13;;;;;;;3.97;1.90;;;;;;;20.22;43.76;101125.06;5092581;28;20087;-71
2022/07/14 01:58:40;;;;;;;6.57;2.35;;;;;;;20.11;43.95;101134.75;5093015;28;20067;-71
2022/07/14 02:03:57;;;;;;;13.55;3.03;;;;;;;20.16;43.72;101141.22;5091208;28;20130;-71
2022/07/14 02:06:24;;;;;;;6.45;1.65;;;;;;;20.02;44.09;101130.56;5091367;28;20120;-71
2022/07/14 02:08:50;;;;;;;6.60;2.53;;;;;;;19.82;44.57;101136.03;5092224;28;20044;-70
2022/07/14 02:14:03;;;;;;;5.57;2.10;;;;;;;19.78;44.36;101140.25;5092195;28;20044;-72
2022/07/14 02:16:30;;;;;;;5.78;1.85;;;;;;;19.72;44.52;101144.63;5091431;28;20499;-71
2022/07/14 02:18:58;;;;;;;7.18;2.10;;;;;;;19.75;44.45;101146.94;5092010;28;20050;-70
2022/07/14 02:21:26;;;;;;;4.47;2.20;;;;;;;19.64;44.81;101147.56;5091293;28;20078;-72
2022/07/14 02:23:53;;;;;;;4.20;2.38;;;;;;;19.76;44.50;101143.16;5091724;28;20127;-72
2022/07/14 02:26:20;;;;;;;7.00;2.25;;;;;;;19.66;44.72;101150.91;5092246;28;20444;-71
2022/07/14 02:28:47;;;;;;;8.25;2.42;;;;;;;19.60;44.75;101152.56;5091215;28;20543;-71
2022/07/14 02:31:14;;;;;;;5.35;2.22;;;;;;;19.25;45.31;101150.03;5091957;28;20123;-72
2022/07/14 02:33:41;;;;;;;8.88;1.75;;;;;;;19.39;44.89;101152.78;5091475;28;20123;-71
2022/07/14 02:36:07;;;;;;;5.22;2.00;;;;;;;19.32;44.85;101152.78;5091423;28;20068;-71
2022/07/14 02:38:36;;;;;;;6.38;1.80;;;;;;;19.37;44.67;101139.38;5091806;28;20043;-71
2022/07/14 02:41:04;;;;;;;6.07;2.10;;;;;;;19.05;45.25;101151.06;5091767;28;20126;-71
2022/07/14 02:43:33;;;;;;;9.18;2.20;;;;;;;19.32;44.59;101143.78;5090913;28;20048;-71
2022/07/14 02:46:00;;;;;;;7.78;2.40;;;;;;;18.97;45.33;101152.94;5092319;28;20518;-72
2022/07/14 02:48:27;;;;;;;8.55;2.13;;;;;;;19.02;44.83;101155.84;5091486;28;20044;-72
2022/07/14 02:51:01;;;;;;;9.30;2.30;;;;;;;19.07;44.63;101162.56;5090824;28;20138;-71
2022/07/14 02:53:28;;;;;;;7.55;2.40;;;;;;;18.95;44.74;101176.75;5092002;28;20063;-72
2022/07/14 02:55:55;;;;;;;9.18;2.35;;;;;;;18.98;44.21;101178.22;5091968;28;20056;-72
2022/07/14 02:58:23;;;;;;;9.93;2.38;;;;;;;18.97;44.01;101169.25;5089329;28;20444;-72
2022/07/14 03:00:51;;;;;;;9.95;2.13;;;;;;;19.18;43.83;101178.28;5091126;28;20055;-72
2022/07/14 03:03:17;;;;;;;5.72;1.85;;;;;;;19.06;43.88;101179.91;5091536;28;20075;-71
2022/07/14 03:05:44;;;;;;;14.88;2.60;;;;;;;19.24;43.57;101181.03;5091342;28;20052;-71
2022/07/14 03:08:10;;;;;;;12.07;2.45;;;;;;;19.13;43.50;101180.78;5073654;28;20130;-71
2022/07/14 03:10:37;;;;;;;12.32;2.42;;;;;;;19.29;43.10;101177.66;5091346;28;20074;-71
2022/07/14 03:13:04;;;;;;;12.63;2.40;;;;;;;18.93;43.79;101175.28;5090339;28;20050;-71
2022/07/14 03:15:30;;;;;;;8.98;2.20;;;;;;;18.98;43.72;101178.22;5090505;28;20048;-71
2022/07/14 03:17:57;;;;;;;9.38;2.72;;;;;;;18.98;43.71;101179.06;5092037;28;20182;-71
2022/07/14 03:20:24;;;;;;;8.15;2.28;;;;;;;18.92;43.66;101188.03;5091077;28;20047;-71
2022/07/14 03:22:51;;;;;;;6.55;2.42;;;;;;;19.16;42.93;101180.38;5091644;28;20060;-71
2022/07/14 03:25:18;;;;;;;14.13;2.72;;;;;;;18.75;44.08;101181.25;5090619;28;20050;-71
2022/07/14 03:27:49;;;;;;;13.50;2.78;;;;;;;18.69;44.14;101176.66;5091117;28;20121;-71
2022/07/14 03:30:16;;;;;;;9.88;2.42;;;;;;;18.78;43.97;101180.84;5091515;28;20075;-71
2022/07/14 03:32:42;;;;;;;10.85;2.33;;;;;;;18.81;43.84;101190.47;5093377;28;20043;-72
2022/07/14 03:35:09;;;;;;;13.02;2.25;;;;;;;18.46;44.72;101194.09;5093050;28;20082;-71
2022/07/14 03:37:36;;;;;;;14.88;2.88;;;;;;;18.28;44.93;101188.34;5095380;28;20474;-71
2022/07/14 03:40:06;;;;;;;10.32;2.60;;;;;;;18.38;44.56;101204.28;5075663;28;20066;-71
2022/07/14 03:42:32;;;;;;;14.63;3.00;;;;;;;18.36;44.35;101201.75;5094713;28;20068;-71
2022/07/14 03:44:59;;;;;;;10.70;2.67;;;;;;;18.37;44.22;101210.75;5095006;28;20078;-71
2022/07/14 03:47:25;;;;;;;13.50;2.80;;;;;;;18.16;44.75;101208.94;5096007;28;20479;-71
2022/07/14 03:49:52;;;;;;;10.57;2.45;;;;;;;18.16;44.68;101212.50;5095305;28;20072;-71
2022/07/14 03:52:19;;;;;;;8.25;2.60;;;;;;;18.00;44.92;101216.34;5095055;28;20123;-71
2022/07/14 03:54:46;;;;;;;21.60;2.80;;;;;;;18.10;44.50;101210.56;5095293;28;20399;-71
2022/07/14 03:57:14;;;;;;;13.00;2.50;;;;;;;18.02;44.86;101208.81;5095214;28;20072;-71
2022/07/14 03:59:40;;;;;;;10.68;2.75;;;;;;;18.06;44.54;101207.41;5094437;28;20127;-71
2022/07/14 04:02:11;;;;;;;9.82;2.60;;;;;;;18.08;44.70;101216.16;5089589;28;20044;-71
2022/07/14 04:04:39;;;;;;;15.25;3.15;;;;;;;18.07;44.59;101219.94;5093971;28;20446;-71
2022/07/14 04:07:07;;;;;;;13.70;3.13;;;;;;;17.99;45.13;101221.94;5094232;28;20110;-71
2022/07/14 04:09:34;;;;;;;17.60;2.92;;;;;;;17.90;45.07;101223.16;5094534;28;20044;-72
2022/07/14 04:12:01;;;;;;;16.55;2.65;;;;;;;18.05;44.77;101211.13;5089828;28;20507;-72
2022/07/14 04:14:27;;;;;;;16.10;3.33;;;;;;;18.13;44.56;101220.16;5093641;28;20044;-70
2022/07/14 04:16:54;;;;;;;16.92;3.00;;;;;;;18.14;44.38;101224.59;5094212;28;20082;-71
2022/07/14 04:19:21;;;;;;;17.35;2.60;;;;;;;18.38;43.99;101224.16;5092916;28;20055;-71
2022/07/14 04:21:47;;;;;;;15.93;2.40;;;;;;;18.36;43.73;101233.53;5094328;28;20126;-70
2022/07/14 04:24:14;;;;;;;13.50;3.47;;;;;;;18.23;44.07;101229.66;5094031;28;20131;-70
2022/07/14 04:26:40;;;;;;;10.02;2.70;;;;;;;18.27;44.13;101230.09;5093602;28;20040;-70
2022/07/14 04:29:08;;;;;;;14.05;3.30;;;;;;;18.37;43.90;101235.19;5093891;28;20440;-70
2022/07/14 04:31:35;;;;;;;24.13;3.33;;;;;;;18.43;43.96;101237.13;5094690;28;20436;-71
2022/07/14 04:34:03;;;;;;;11.60;2.67;;;;;;;18.32;44.10;101235.78;5094882;28;20047;-71
2022/07/14 04:36:30;;;;;;;16.20;2.85;;;;;;;18.23;44.30;101239.69;5093811;28;20506;-70
2022/07/14 04:38:59;;;;;;;16.77;3.17;;;;;;;18.16;45.76;101242.34;5092589;28;20131;-71
2022/07/14 04:41:25;;;;;;;23.30;3.15;;;;;;;18.38;44.86;101236.88;5094101;28;20976;-71
2022/07/14 04:43:52;;;;;;;18.40;3.47;;;;;;;18.26;45.22;101229.28;5093071;28;20071;-71
2022/07/14 04:46:19;;;;;;;13.48;2.60;;;;;;;18.11;44.97;101233.13;5094391;28;20064;-71
2022/07/14 04:54:17;;;;;;;14.95;2.97;;;;;;;18.50;44.00;101227.97;5094137;28;20044;-71
2022/07/14 04:56:43;;;;;;;18.05;3.90;;;;;;;18.45;43.92;101235.88;5093619;28;20474;-71
2022/07/14 04:59:25;;;;;;;22.67;3.55;;;;;;;18.44;43.89;101236.91;5093232;28;20048;-71
2022/07/14 05:01:51;;;;;;;15.77;3.05;;;;;;;18.47;43.83;101231.06;5092900;28;20048;-71
2022/07/14 05:04:19;;;;;;;12.77;2.50;;;;;;;18.41;44.06;101225.59;5093298;28;20549;-72
2022/07/14 05:06:46;;;;;;;18.13;3.03;;;;;;;18.34;44.57;101220.13;5092939;28;20525;-71
2022/07/14 05:09:13;;;;;;;15.50;2.85;;;;;;;18.33;44.19;101218.44;5093359;28;20044;-71
2022/07/14 05:11:40;;;;;;;20.67;3.55;;;;;;;18.48;44.10;101215.59;5093956;28;20040;-71
2022/07/14 05:14:07;;;;;;;15.10;3.05;;;;;;;18.33;44.36;101215.75;5093018;28;20068;-71
2022/07/14 05:16:34;;;;;;;14.90;3.10;;;;;;;18.48;43.99;101218.31;5094561;28;20120;-71
2022/07/14 05:19:21;;;;;;;18.60;2.88;;;;;;;18.40;44.06;101221.22;5092041;28;20058;-71
2022/07/14 05:21:48;;;;;;;22.10;2.92;;;;;;;18.46;43.83;101234.84;5093363;28;20131;-71
2022/07/14 05:24:15;;;;;;;19.15;2.88;;;;;;;18.87;43.08;101242.16;5092277;28;20047;-70
2022/07/14 05:26:41;;;;;;;18.38;2.95;;;;;;;18.83;42.94;101240.91;5083443;28;20102;-71
2022/07/14 05:29:16;;;;;;;17.58;2.92;;;;;;;18.43;43.83;101245.25;5091709;28;20044;-71
2022/07/14 05:31:42;;;;;;;21.98;3.33;;;;;;;18.61;43.66;101245.56;5092385;28;20097;-70
2022/07/14 05:34:09;;;;;;;12.73;2.97;;;;;;;18.53;43.71;101235.72;5092525;28;20040;-70
2022/07/14 05:36:35;;;;;;;15.75;4.20;;;;;;;18.41;43.68;101234.63;5091360;28;20547;-71
2022/07/14 05:39:02;;;;;;;16.52;2.80;;;;;;;18.62;43.43;101254.56;5092552;28;20076;-71
2022/07/14 05:41:29;;;;;;;16.02;3.10;;;;;;;18.67;43.42;101252.09;5091778;28;20123;-71
2022/07/14 05:43:56;;;;;;;15.75;3.50;;;;;;;18.55;43.70;101246.41;5085624;28;20212;-71
2022/07/14 05:46:22;;;;;;;15.70;3.03;;;;;;;18.47;43.86;101247.38;5092706;28;20126;-70
2022/07/14 05:48:49;;;;;;;14.15;2.80;;;;;;;18.49;44.03;101242.59;5092601;28;20555;-69
2022/07/14 05:51:17;;;;;;;17.55;3.15;;;;;;;18.68;43.42;101248.31;5092631;28;20124;-70
2022/07/14 05:53:45;;;;;;;19.67;3.63;;;;;;;18.66;43.35;101253.16;5088070;28;20127;-70
2022/07/14 05:56:13;;;;;;;13.10;2.67;;;;;;;18.62;43.69;101255.44;5091199;28;20098;-71
2022/07/14 05:58:40;;;;;;;16.98;3.40;;;;;;;18.64;43.55;101253.31;5091919;28;20036;-70
2022/07/14 06:01:07;;;;;;;16.60;3.17;;;;;;;18.61;43.78;101250.19;5092818;28;20101;-71
2022/07/14 06:03:35;;;;;;;28.73;3.05;;;;;;;18.70;43.23;101252.53;5093096;28;20108;-71
2022/07/14 06:06:05;;;;;;;18.23;2.92;;;;;;;18.44;43.68;101242.34;5091680;28;20067;-70
2022/07/14 06:08:32;;;;;;;21.95;3.28;;;;;;;18.49;43.86;101255.34;5091491;28;20119;-70
2022/07/14 06:10:59;;;;;;;17.75;3.15;;;;;;;18.33;44.37;101253.75;5093085;28;20535;-70
2022/07/14 06:13:28;;;;;;;10.68;2.90;;;;;;;18.40;44.06;101254.66;5092060;28;20078;-70
2022/07/14 06:15:55;;;;;;;16.13;3.30;;;;;;;18.60;43.53;101267.53;5091200;28;20423;-70
2022/07/14 06:18:24;;;;;;;16.02;3.13;;;;;;;18.41;43.95;101259.06;5090170;28;20488;-70
2022/07/14 06:20:51;;;;;;;19.20;2.90;;;;;;;18.46;43.88;101262.00;5071051;28;20040;-70
2022/07/14 06:23:17;;;;;;;17.15;2.95;;;;;;;18.29;44.24;101260.63;5070680;28;20048;-71
2022/07/14 06:25:44;;;;;;;14.82;2.85;;;;;;;18.76;43.16;101261.78;5067701;28;20075;-71
2022/07/14 06:28:17;;;;;;;13.50;2.83;;;;;;;18.67;43.40;101252.94;5015396;28;20409;-71
2022/07/14 06:30:45;;;;;;;15.48;3.10;;;;;;;18.79;43.12;101255.91;5001311;28;20221;-71
2022/07/14 06:33:12;;;;;;;23.75;3.83;;;;;;;18.92;42.55;101256.00;5034194;28;20527;-69
2022/07/14 06:35:41;;;;;;;13.75;2.80;;;;;;;18.99;42.29;101254.16;5049700;28;20049;-70
2022/07/14 06:38:28;;;;;;;14.00;3.05;;;;;;;19.08;42.03;101262.16;5048484;28;20041;-69
2022/07/14 06:40:54;;;;;;;20.52;3.20;;;;;;;18.54;42.91;101255.56;5048924;28;20080;-70
2022/07/14 06:43:22;;;;;;;20.05;2.88;;;;;;;19.04;42.05;101260.88;5048451;28;20045;-69
2022/07/14 06:45:49;;;;;;;12.05;2.50;;;;;;;18.69;42.47;101256.28;5080603;28;20041;-69
2022/07/14 06:48:17;;;;;;;11.98;2.30;;;;;;;19.15;41.16;101265.72;5048917;28;20053;-69
2022/07/14 06:50:44;;;;;;;13.15;2.55;;;;;;;18.94;41.72;101270.25;5047407;28;20048;-69
2022/07/14 06:53:11;;;;;;;15.13;2.53;;;;;;;19.64;40.50;101270.03;5049697;28;20058;-70
2022/07/14 06:55:37;;;;;;;8.68;2.40;;;;;;;20.22;39.47;101262.13;5049425;28;20091;-70
2022/07/14 06:58:04;;;;;;;8.57;2.05;;;;;;;20.02;38.95;101267.56;5048776;28;20068;-69
2022/07/14 07:00:31;;;;;;;19.00;3.17;;;;;;;20.47;37.79;101265.03;5047397;28;20510;-70
2022/07/14 07:02:57;;;;;;;18.88;3.33;;;;;;;20.57;37.34;101270.06;5048429;28;20092;-69
2022/07/14 07:08:09;;;;;;;9.65;2.45;;;;;;;20.49;36.99;101270.28;5049660;28;20069;-70
2022/07/14 07:10:41;;;;;;;10.45;2.20;;;;;;;21.00;35.79;101270.31;5048929;28;20445;-70
2022/07/14 07:13:08;;;;;;;16.88;3.60;;;;;;;21.53;34.86;101261.06;5049456;28;20045;-69
2022/07/14 07:15:37;;;;;;;17.05;2.72;;;;;;;21.71;34.20;101252.13;5048960;28;20128;-70
2022/07/14 07:18:06;;;;;;;14.07;3.15;;;;;;;22.07;33.89;101256.88;5049292;28;20056;-70
2022/07/14 07:20:34;;;;;;;12.43;2.60;;;;;;;22.48;33.40;101253.56;5048976;28;20052;-69
2022/07/14 07:23:01;;;;;;;20.38;3.15;;;;;;;21.99;34.12;101249.81;5049430;28;20437;-70
2022/07/14 07:25:28;;;;;;;13.25;3.08;;;;;;;22.08;33.68;101248.47;5049114;28;20045;-69
2022/07/14 07:27:55;;;;;;;19.98;3.08;;;;;;;22.20;33.03;101250.47;5047205;28;20041;-70
2022/07/14 07:30:21;;;;;;;18.38;3.45;;;;;;;22.75;31.99;101245.91;5046935;28;20049;-70
2022/07/14 07:32:48;;;;;;;9.02;2.35;;;;;;;23.70;30.52;101241.66;5048811;28;20049;-69
2022/07/14 07:35:14;;;;;;;8.07;1.90;;;;;;;23.79;30.00;101231.25;5048183;28;20466;-69
2022/07/14 07:37:41;;;;;;;10.88;2.15;;;;;;;24.13;30.21;101227.69;5044804;28;20077;-70
2022/07/14 07:40:08;;;;;;;14.52;4.18;;;;;;;24.36;29.21;101226.00;5035355;28;20069;-70
2022/07/14 07:42:35;;;;;;;10.30;2.50;;;;;;;23.37;29.91;101215.63;5034864;28;20049;-70
2022/07/14 07:45:01;;;;;;;11.68;2.92;;;;;;;23.29;30.42;101217.84;5034612;28;20081;-70
2022/07/14 07:47:28;;;;;;;9.43;2.42;;;;;;;23.92;29.55;101225.53;5034325;28;20049;-70
2022/07/14 07:49:55;;;;;;;9.93;2.70;;;;;;;24.39;29.17;101217.31;5034128;28;20069;-70
2022/07/14 07:52:22;;;;;;;9.50;1.98;;;;;;;25.02;28.23;101216.47;5034120;28;20080;-70
2022/07/14 07:54:48;;;;;;;11.77;2.53;;;;;;;25.04;27.86;101208.00;5033163;28;20077;-70
2022/07/14 07:57:36;;;;;;;10.90;2.53;;;;;;;25.10;27.83;101204.28;5033576;28;20049;-70
2022/07/14 08:00:04;;;;;;;8.60;2.33;;;;;;;25.74;26.58;101204.03;5033629;28;20037;-70
2022/07/14 08:02:31;;;;;;;9.07;2.33;;;;;;;26.07;25.64;101200.44;5034037;28;20073;-70
2022/07/14 08:05:56;;;;;;;9.18;2.00;;;;;;;-149.70;100.00;63222.41;5033538;28;20048;-70
2022/07/14 08:09:41;;;;;;;11.38;2.20;;;;;;;-149.70;100.00;63222.41;5033711;28;20052;-69
2022/07/14 08:13:08;;;;;;;9.60;2.00;;;;;;;-149.70;100.00;63222.41;5033029;28;20132;-70
2022/07/14 08:15:35;;;;;;;5.32;1.80;;;;;;;-149.70;100.00;63222.41;5033192;28;20136;-70
2022/07/14 08:18:01;;;;;;;10.98;1.85;;;;;;;26.00;25.38;101199.78;5034154;28;20121;-69
2022/07/14 08:20:29;;;;;;;8.68;2.35;;;;;;;25.70;24.78;101202.88;5033034;28;20045;-69
2022/07/14 08:22:56;;;;;;;7.35;1.60;;;;;;;25.77;24.79;101196.13;5032804;28;20041;-70
2022/07/14 08:25:22;;;;;;;10.38;1.95;;;;;;;26.55;24.33;101190.66;5033201;28;20045;-70
2022/07/14 08:27:49;;;;;;;7.95;2.05;;;;;;;26.38;24.17;101182.47;5032755;28;20538;-69
2022/07/14 08:30:16;;;;;;;8.45;2.33;;;;;;;26.41;23.99;101183.84;5033796;28;20152;-69
2022/07/14 08:32:51;;;;;;;6.18;1.67;;;;;;;26.92;22.79;101188.09;5033752;28;20044;-70
2022/07/14 08:35:20;;;;;;;6.72;1.70;;;;;;;26.43;22.78;101187.19;5033736;28;20497;-70
2022/07/14 08:37:47;;;;;;;5.22;1.38;;;;;;;27.14;22.34;101184.44;5033395;28;20068;-70
2022/07/14 08:40:16;;;;;;;7.53;2.15;;;;;;;25.89;23.53;101176.78;5033418;28;20413;-70
2022/07/14 08:42:45;;;;;;;9.05;1.98;;;;;;;26.60;23.21;101182.47;5034003;28;20061;-70
2022/07/14 08:45:15;;;;;;;4.45;1.38;;;;;;;26.87;22.89;101171.53;5031699;28;20096;-71
2022/07/14 08:47:42;;;;;;;6.90;1.40;;;;;;;26.26;23.53;101168.81;5032921;28;20046;-70
2022/07/14 08:50:13;;;;;;;6.18;1.60;;;;;;;26.69;22.86;101169.06;5030261;28;20041;-70
2022/07/14 08:52:41;;;;;;;9.83;1.50;;;;;;;27.43;21.74;101166.59;5032399;28;20402;-70
2022/07/14 08:55:10;;;;;;;6.82;1.60;;;;;;;27.09;22.72;101154.13;5033144;28;20136;-71
2022/07/14 08:57:39;;;;;;;8.23;1.60;;;;;;;27.44;22.25;101157.22;5032605;28;20072;-71
2022/07/14 09:00:10;;;;;;;8.65;1.52;;;;;;;27.75;22.00;101165.72;5033758;28;20478;-71
2022/07/14 09:02:38;;;;;;;7.13;2.22;;;;;;;28.48;21.08;101157.63;5032303;28;20128;-71
2022/07/14 09:05:25;;;;;;;5.68;1.63;;;;;;;27.41;22.52;101151.41;5013356;28;20053;-71
2022/07/14 09:07:56;;;;;;;5.18;1.38;;;;;;;26.88;21.79;101142.91;5013164;28;20446;-71
2022/07/14 09:10:27;;;;;;;7.43;1.60;;;;;;;27.00;22.00;101135.34;5012911;28;20050;-71
2022/07/14 09:13:13;;;;;;;6.45;1.60;;;;;;;27.71;21.59;101145.31;5013676;28;20124;-71
2022/07/14 09:15:46;;;;;;;12.50;1.58;;;;;;;27.76;21.01;101150.84;5012468;28;20046;-71
2022/07/14 09:18:21;;;;;;;6.68;1.38;;;;;;;28.23;20.22;101147.28;5009679;28;20069;-71
2022/07/14 09:20:49;;;;;;;5.05;1.58;;;;;;;28.32;20.69;101142.94;5012296;28;20046;-71
2022/07/14 09:23:25;;;;;;;4.93;1.33;;;;;;;28.19;20.94;101140.66;5011549;28;20467;-71
2022/07/14 09:26:11;;;;;;;10.23;1.95;;;;;;;28.48;20.39;101143.00;5011994;28;20072;-71
2022/07/14 09:28:40;;;;;;;10.77;1.80;;;;;;;27.71;20.01;101142.53;5012770;28;20133;-71
2022/07/14 09:31:27;;;;;;;6.30;1.25;;;;;;;28.22;19.63;101134.59;5013031;28;20056;-70
2022/07/14 09:33:59;;;;;;;4.88;1.45;;;;;;;28.99;19.22;101121.09;5012393;28;20045;-69
2022/07/14 09:36:31;;;;;;;4.78;1.38;;;;;;;29.24;19.19;101120.25;5012977;28;20100;-70
2022/07/14 09:39:03;;;;;;;4.55;1.50;;;;;;;28.30;20.45;101120.28;5012052;28;20482;-70
2022/07/14 09:41:35;;;;;;;5.28;1.45;;;;;;;28.66;19.85;101114.91;5012701;28;20061;-70
2022/07/14 09:44:14;;;;;;;5.07;1.50;;;;;;;28.01;20.50;101114.38;5013477;28;20501;-70
2022/07/14 09:46:57;;;;;;;6.35;1.83;;;;;;;28.34;20.60;101117.81;5012168;28;20569;-70
2022/07/14 09:49:32;;;;;;;8.40;1.70;;;;;;;27.90;21.34;101115.38;4992680;28;20035;-70
2022/07/14 09:52:14;;;;;;;6.27;1.60;;;;;;;28.41;20.74;101101.84;4991407;28;20054;-70
2022/07/14 09:54:49;;;;;;;7.80;1.98;;;;;;;27.99;20.84;101101.94;4992560;28;20454;-70
2022/07/14 09:57:27;;;;;;;4.80;1.25;;;;;;;28.08;21.18;101101.16;4992009;28;20046;-71
2022/07/14 10:00:08;;;;;;;4.80;1.55;;;;;;;28.57;20.78;101102.75;4992527;28;20145;-70
2022/07/14 10:02:39;;;;;;;6.90;1.80;;;;;;;28.98;20.20;101094.56;4992148;28;20121;-71
2022/07/14 10:05:09;;;;;;;6.13;1.52;;;;;;;29.51;19.37;101095.13;4993151;28;20553;-71
2022/07/14 10:07:43;;;;;;;8.35;1.38;;;;;;;29.37;19.41;101098.44;4991938;28;20132;-70
2022/07/14 10:10:12;;;;;;;7.85;1.70;;;;;;;28.22;20.29;101093.22;4992718;28;20070;-70
2022/07/14 10:12:44;;;;;;;7.18;1.70;;;;;;;28.35;19.95;101087.22;4993043;28;20042;-71
2022/07/14 10:15:12;;;;;;;;;;;;;;;29.96;17.83;101083.13;4993233;28;20054;-70
2022/07/14 10:17:41;;;;;;;6.13;1.77;;;;;;;30.48;17.40;101083.75;4993176;28;19921;-70
2022/07/14 10:20:10;;;;;;;4.32;1.30;;;;;;;29.62;17.90;101077.41;4993138;28;20085;-70
2022/07/14 10:22:37;;;;;;;5.88;1.50;;;;;;;30.11;17.08;101085.03;4991853;28;20089;-70
2022/07/14 10:25:06;;;;;;;3.33;1.27;;;;;;;30.19;17.24;101089.13;4992760;28;20125;-70
2022/07/14 10:27:40;;;;;;;8.25;1.75;;;;;;;30.35;17.13;101084.38;4984171;28;20487;-71
2022/07/14 10:30:07;;;;;;;7.20;1.60;;;;;;;30.17;16.47;101086.66;4998510;28;20449;-70
2022/07/14 10:32:46;;;;;;;8.07;1.52;;;;;;;31.18;16.05;101089.94;4991121;28;20073;-71
2022/07/14 10:35:46;;;;;;;9.90;1.88;;;;;;;30.21;16.73;101093.28;4991970;28;24604;-71
2022/07/14 10:38:28;;;;;;;2.88;1.10;;;;;;;29.89;16.29;101092.84;4991942;28;20133;-70
2022/07/14 10:41:25;;;;;;;4.03;1.20;;;;;;;29.71;16.58;101092.34;4998085;28;20069;-70
2022/07/14 10:44:03;;;;;;;7.15;1.65;;;;;;;30.14;15.92;101084.47;5011114;28;20061;-71
2022/07/14 10:46:51;;;;;;;5.40;1.80;;;;;;;28.94;17.26;101087.88;5011737;28;20100;-70
2022/07/14 10:49:18;;;;;;;6.40;1.40;;;;;;;28.87;17.75;101082.63;5007978;28;20498;-71
2022/07/14 10:51:50;;;;;;;3.53;1.02;;;;;;;28.96;17.46;101080.19;5010539;28;20049;-71
2022/07/14 10:54:27;;;;;;;6.40;1.00;;;;;;;28.49;17.16;101086.69;5010991;28;20133;-70
2022/07/14 10:57:17;;;;;;;2.15;1.00;;;;;;;28.42;16.90;101074.00;5009862;28;20050;-70
2022/07/14 10:59:47;;;;;;;3.35;0.90;;;;;;;27.89;17.29;101075.97;5012286;28;20054;-70
2022/07/14 11:02:15;;;;;;;;;;;;;;;27.48;18.14;101066.59;5011114;28;20121;-70
2022/07/14 11:05:00;;;;;;;8.23;1.05;;;;;;;27.05;18.32;101075.88;5012360;28;20420;-71
2022/07/14 11:07:48;;;;;;;4.13;0.90;;;;;;;27.46;18.15;101063.28;5012215;28;20138;-71
2022/07/14 11:10:14;;;;;;;4.35;1.10;;;;;;;27.14;18.39;101058.63;5012083;28;20100;-70
2022/07/14 11:12:59;;;;;;;6.90;0.80;;;;;;;26.71;18.65;101065.91;5012067;28;20077;-70
2022/07/14 11:15:38;;;;;;;3.70;1.00;;;;;;;26.82;18.61;101061.34;5014666;28;20108;-71
2022/07/14 11:18:26;;;;;;;5.00;0.85;;;;;;;26.11;19.25;101063.28;5014946;28;20046;-71
2022/07/14 11:21:12;;;;;;;4.72;0.90;;;;;;;25.82;19.86;101064.28;5013886;28;20046;-71
2022/07/14 11:23:54;;;;;;;4.47;0.90;;;;;;;26.59;19.00;101047.88;5014857;28;20053;-70
2022/07/14 11:26:40;;;;;;;4.90;1.35;;;;;;;25.79;19.87;101047.44;5014767;28;20069;-70
2022/07/14 11:29:14;;;;;;;2.85;0.80;;;;;;;26.41;19.12;101049.06;5015781;28;20057;-72
2022/07/14 11:31:49;;;;;;;4.78;0.82;;;;;;;26.58;18.92;101041.53;5016203;28;20078;-70
2022/07/14 11:37:07;;;;;;;3.83;0.82;;;;;;;27.60;17.35;101036.09;5016238;28;20583;-70
2022/07/14 11:39:54;;;;;;;7.40;1.70;;;;;;;26.69;18.94;101035.06;5015016;28;20052;-71
2022/07/14 11:42:20;;;;;;;3.13;0.85;;;;;;;26.73;19.12;101038.13;5014962;28;22589;-71
2022/07/14 11:44:49;;;;;;;12.50;1.45;;;;;;;26.74;18.78;101032.34;5014782;28;20076;-71
2022/07/14 11:47:22;;;;;;;4.45;1.00;;;;;;;26.32;19.01;101027.53;5014945;28;20096;-71
2022/07/14 11:49:53;;;;;;;5.20;1.15;;;;;;;25.79;19.13;101022.72;5015152;28;20446;-71
2022/07/14 11:52:33;;;;;;;8.33;0.90;;;;;;;25.84;19.73;101025.56;5013543;28;20050;-72
2022/07/14 11:55:07;;;;;;;2.03;0.75;;;;;;;25.46;20.03;101007.13;5015643;28;20351;-71
2022/07/14 11:57:33;;;;;;;5.30;1.02;;;;;;;25.59;20.18;101007.63;5014239;28;20052;-71